createdAt,value
2018-05-26T00:01:53.973Z,"    0"
2018-05-26T00:06:49.620Z,"    0"
2018-05-26T00:11:45.621Z,"    0"
2018-05-26T00:16:42.523Z,"    0"
2018-05-26T00:21:38.119Z,"    0"
2018-05-26T00:26:33.989Z,"    0"
2018-05-26T00:31:30.161Z,"    0"
2018-05-26T00:36:27.155Z,"    0"
2018-05-26T00:41:22.986Z,"    0"
2018-05-26T00:46:18.933Z,"    0"
2018-05-26T00:51:14.659Z,"    0"
2018-05-26T00:56:10.951Z,"    0"
2018-05-26T01:01:06.607Z,"    0"
2018-05-26T01:06:03.976Z,"    0"
2018-05-26T01:10:59.505Z,"    0"
2018-05-26T01:15:56.594Z,"    0"
2018-05-26T01:20:51.928Z,"    0"
2018-05-26T01:25:47.960Z,"    0"
2018-05-26T01:30:43.870Z,"    0"
2018-05-26T01:35:39.780Z,"    0"
2018-05-26T01:40:36.135Z,"    0"
2018-05-26T01:45:33.087Z,"    0"
2018-05-26T01:50:28.709Z,"    0"
2018-05-26T01:55:24.955Z,"    0"
2018-05-26T02:00:22.064Z,"    0"
2018-05-26T02:05:17.575Z,"    0"
2018-05-26T02:10:14.568Z,"    0"
2018-05-26T02:15:11.128Z,"    0"
2018-05-26T02:20:07.843Z,"    0"
2018-05-26T02:25:03.411Z,"    0"
2018-05-26T02:29:59.978Z,"    0"
2018-05-26T02:34:55.827Z,"    0"
2018-05-26T02:39:51.353Z,"    0"
2018-05-26T02:44:47.154Z,"    0"
2018-05-26T02:49:43.100Z,"    0"
2018-05-26T02:54:38.573Z,"    0"
2018-05-26T02:59:34.253Z,"    0"
2018-05-26T03:04:31.222Z,"    0"
2018-05-26T03:09:27.282Z,"    0"
2018-05-26T03:14:23.139Z,"    5"
2018-05-26T03:19:19.386Z,"    5"
2018-05-26T03:24:15.311Z,"   10"
2018-05-26T03:29:11.078Z,"   10"
2018-05-26T03:34:06.889Z,"   15"
2018-05-26T03:39:02.666Z,"   20"
2018-05-26T03:43:58.672Z,"   25"
2018-05-26T03:48:54.885Z,"   35"
2018-05-26T03:53:50.961Z,"   40"
2018-05-26T03:58:47.138Z,"   40"
2018-05-26T04:03:43.187Z,"   50"
2018-05-26T04:08:39.182Z,"   55"
2018-05-26T04:13:36.318Z,"   65"
2018-05-26T04:18:32.853Z,"   70"
2018-05-26T04:23:29.255Z,"   80"
2018-05-26T04:28:24.953Z,"  105"
2018-05-26T04:33:21.400Z,"  100"
2018-05-26T04:38:18.992Z,"  105"
2018-05-26T04:43:14.997Z,"  120"
2018-05-26T04:48:11.178Z,"  115"
2018-05-26T04:53:07.096Z,"  115"
2018-05-26T04:58:03.243Z,"  145"
2018-05-26T05:02:59.759Z,"  155"
2018-05-26T05:07:57.040Z,"  165"
2018-05-26T05:12:52.731Z,"  155"
2018-05-26T05:17:48.449Z,"  180"
2018-05-26T05:22:44.631Z,"  170"
2018-05-26T05:27:41.618Z,"  185"
2018-05-26T05:32:37.320Z,"  210"
2018-05-26T05:37:33.424Z,"  225"
2018-05-26T05:42:30.334Z,"  245"
2018-05-26T05:47:26.859Z,"  250"
2018-05-26T05:52:23.435Z,"  240"
2018-05-26T05:57:19.361Z,"  235"
2018-05-26T06:02:15.290Z,"  230"
2018-05-26T06:07:11.193Z,"  230"
2018-05-26T06:12:07.004Z,"  225"
2018-05-26T06:17:03.330Z,"  225"
2018-05-26T06:21:59.345Z,"  225"
2018-05-26T06:26:55.352Z,"  230"
2018-05-26T06:31:52.385Z,"  235"
2018-05-26T06:36:49.181Z,"  240"
2018-05-26T06:41:45.017Z,"  235"
2018-05-26T06:46:40.816Z,"  240"
2018-05-26T06:51:37.788Z,"  240"
2018-05-26T06:56:34.584Z,"  245"
2018-05-26T07:01:30.398Z,"  245"
2018-05-26T07:06:26.555Z,"  250"
2018-05-26T07:11:24.357Z,"  255"
2018-05-26T07:16:20.262Z,"  260"
2018-05-26T07:21:16.241Z,"  255"
2018-05-26T07:26:12.277Z,"  265"
2018-05-26T07:31:09.730Z,"  260"
2018-05-26T07:36:05.902Z,"  260"
2018-05-26T07:41:02.979Z,"  300"
2018-05-26T07:45:59.519Z,"  670"
2018-05-26T07:50:58.885Z," 1080"
2018-05-26T07:55:58.513Z," 1190"
2018-05-26T08:00:56.372Z," 1260"
2018-05-26T08:05:58.450Z," 1235"
2018-05-26T08:10:54.572Z," 1280"
2018-05-26T08:15:51.185Z," 1155"
2018-05-26T08:20:47.544Z," 1335"
2018-05-26T08:25:45.153Z," 1125"
2018-05-26T08:30:41.329Z," 1305"
2018-05-26T08:35:38.295Z," 1430"
2018-05-26T08:40:35.794Z," 1460"
2018-05-26T08:45:32.396Z," 1440"
2018-05-26T08:50:29.531Z," 1425"
2018-05-26T08:55:26.295Z," 1435"
2018-05-26T09:00:22.289Z," 1335"
2018-05-26T09:05:19.413Z," 1325"
2018-05-26T09:10:16.484Z," 1415"
2018-05-26T09:15:13.790Z," 1545"
2018-05-26T09:20:10.153Z," 1550"
2018-05-26T09:25:06.996Z," 1430"
2018-05-26T09:30:02.842Z," 1305"
2018-05-26T09:34:59.284Z," 1465"
2018-05-26T09:39:55.057Z," 1635"
2018-05-26T09:44:50.950Z," 1675"
2018-05-26T09:49:47.419Z," 1645"
2018-05-26T09:54:43.951Z," 1720"
2018-05-26T09:59:40.826Z," 1465"
2018-05-26T10:04:36.814Z," 1745"
2018-05-26T10:09:33.924Z," 1700"
2018-05-26T10:14:29.466Z," 1595"
2018-05-26T10:19:25.984Z," 1910"
2018-05-26T10:24:23.326Z," 1710"
2018-05-26T10:29:19.879Z," 1750"
2018-05-26T10:34:16.982Z," 1720"
2018-05-26T10:39:13.432Z," 1750"
2018-05-26T10:44:09.624Z," 1625"
2018-05-26T10:49:06.366Z," 1910"
2018-05-26T10:54:02.360Z," 1965"
2018-05-26T10:58:58.974Z," 1920"
2018-05-26T11:03:55.980Z," 1800"
2018-05-26T11:08:52.603Z," 1790"
2018-05-26T11:13:49.316Z," 1960"
2018-05-26T11:18:45.969Z," 1780"
2018-05-26T11:23:41.776Z," 1855"
2018-05-26T11:28:38.839Z," 1945"
2018-05-26T11:33:34.888Z," 1845"
2018-05-26T11:38:31.190Z," 1905"
2018-05-26T11:43:27.677Z," 1905"
2018-05-26T11:48:24.417Z," 1950"
2018-05-26T11:53:22.149Z," 1790"
2018-05-26T11:58:18.188Z," 1525"
2018-05-26T12:03:14.404Z," 1770"
2018-05-26T12:08:11.656Z," 1810"
2018-05-26T12:13:06.177Z," 1950"
2018-05-26T12:18:03.189Z," 1830"
2018-05-26T12:22:58.963Z," 1770"
2018-05-26T12:27:54.592Z," 1735"
2018-05-26T12:32:49.999Z," 1575"
2018-05-26T12:37:45.521Z," 1755"
2018-05-26T12:42:42.960Z," 1805"
2018-05-26T12:47:38.068Z," 1785"
2018-05-26T12:52:35.358Z," 1660"
2018-05-26T12:57:30.669Z," 1925"
2018-05-26T13:02:26.865Z," 1690"
2018-05-26T13:07:23.282Z," 1510"
2018-05-26T13:12:20.486Z," 1315"
2018-05-26T13:17:17.210Z," 1645"
2018-05-26T13:22:12.016Z," 1690"
2018-05-26T13:27:08.229Z," 1765"
2018-05-26T13:32:04.379Z," 1695"
2018-05-26T13:37:01.317Z," 1490"
2018-05-26T13:41:58.592Z," 1625"
2018-05-26T13:46:55.708Z," 1670"
2018-05-26T13:51:50.483Z," 1590"
2018-05-26T13:56:46.293Z," 1510"
2018-05-26T14:01:42.120Z," 1535"
2018-05-26T14:06:38.766Z,"  205"
2018-05-26T14:11:33.642Z,"  190"
2018-05-26T14:16:29.833Z,"  195"
2018-05-26T14:21:25.122Z,"  190"
2018-05-26T14:26:21.637Z,"  190"
2018-05-26T14:31:16.896Z,"  190"
2018-05-26T14:36:12.666Z,"  195"
2018-05-26T14:41:08.751Z,"  160"
2018-05-26T14:46:04.521Z,"  170"
2018-05-26T14:51:01.320Z,"  170"
2018-05-26T14:55:56.987Z,"  170"
2018-05-26T15:00:53.208Z,"  155"
2018-05-26T15:05:48.988Z,"  165"
2018-05-26T15:10:44.783Z,"  180"
2018-05-26T15:15:40.645Z,"  140"
2018-05-26T15:20:36.704Z,"  140"
2018-05-26T15:25:33.894Z,"  150"
2018-05-26T15:30:31.666Z,"  145"
2018-05-26T15:35:27.644Z,"  145"
2018-05-26T15:40:23.756Z,"  155"
2018-05-26T15:45:19.906Z,"  140"
2018-05-26T15:50:15.983Z,"  125"
2018-05-26T15:55:12.822Z,"  130"
2018-05-26T16:00:08.584Z,"  125"
2018-05-26T16:05:05.442Z,"  120"
2018-05-26T16:10:02.198Z,"  120"
2018-05-26T16:14:57.838Z,"  135"
2018-05-26T16:19:53.836Z,"  130"
2018-05-26T16:24:49.840Z,"  130"
2018-05-26T16:29:46.171Z,"  115"
2018-05-26T16:34:42.130Z,"  115"
2018-05-26T16:39:39.049Z,"  100"
2018-05-26T16:44:34.814Z,"  100"
2018-05-26T16:49:31.067Z,"  105"
2018-05-26T16:54:27.925Z,"  105"
2018-05-26T16:59:23.772Z,"  100"
2018-05-26T17:04:20.934Z,"  100"
2018-05-26T17:09:16.751Z,"   95"
2018-05-26T17:14:12.850Z,"   95"
2018-05-26T17:19:08.977Z,"   90"
2018-05-26T17:24:05.958Z,"   85"
2018-05-26T17:29:02.685Z,"   85"
2018-05-26T17:33:58.433Z,"   80"
2018-05-26T17:38:55.425Z,"   80"
2018-05-26T17:43:52.348Z,"   75"
2018-05-26T17:48:47.922Z,"   70"
2018-05-26T17:53:43.946Z,"   70"
2018-05-26T17:58:39.900Z,"   65"
2018-05-26T18:03:35.879Z,"   60"
2018-05-26T18:08:32.914Z,"   60"
2018-05-26T18:13:28.610Z,"   55"
2018-05-26T18:18:24.464Z,"   50"
2018-05-26T18:23:20.323Z,"   45"
2018-05-26T18:28:16.254Z,"   50"
2018-05-26T18:33:12.059Z,"   45"
2018-05-26T18:38:08.034Z,"   40"
2018-05-26T18:43:03.988Z,"   35"
2018-05-26T18:47:59.977Z,"   30"
2018-05-26T18:52:57.008Z,"   25"
2018-05-26T18:57:52.686Z,"   20"
2018-05-26T19:02:49.690Z,"   20"
2018-05-26T19:07:45.329Z,"   15"
2018-05-26T19:12:41.404Z,"   10"
2018-05-26T19:17:37.460Z,"   10"
2018-05-26T19:22:34.153Z,"    5"
2018-05-26T19:27:29.948Z,"    5"
2018-05-26T19:32:26.732Z,"    0"
2018-05-26T19:37:23.283Z,"    0"
2018-05-26T19:42:19.094Z,"    0"
2018-05-26T19:47:14.873Z,"    0"
2018-05-26T19:52:10.615Z,"    0"
2018-05-26T19:57:06.730Z,"    0"
2018-05-26T20:02:02.595Z,"    0"
2018-05-26T20:06:58.574Z,"    0"
2018-05-26T20:11:54.550Z,"    0"
2018-05-26T20:16:50.819Z,"    0"
2018-05-26T20:21:46.664Z,"    0"
2018-05-26T20:26:42.578Z,"    0"
2018-05-26T20:31:38.546Z,"    0"
2018-05-26T20:36:34.234Z,"    0"
2018-05-26T20:41:30.338Z,"    0"
2018-05-26T20:46:26.572Z,"    0"
2018-05-26T20:51:22.400Z,"    0"
2018-05-26T20:56:19.529Z,"    0"
2018-05-26T21:01:15.416Z,"    0"
2018-05-26T21:06:12.201Z,"    0"
2018-05-26T21:11:08.295Z,"    0"
2018-05-26T21:16:04.120Z,"    0"
2018-05-26T21:21:00.175Z,"    0"
2018-05-26T21:25:56.112Z,"    0"
2018-05-26T21:30:52.106Z,"    0"
2018-05-26T21:35:47.849Z,"    0"
2018-05-26T21:40:43.588Z,"    0"
2018-05-26T21:45:40.797Z,"    0"
2018-05-26T21:50:36.792Z,"    0"
2018-05-26T21:55:32.967Z,"    0"
2018-05-26T22:00:29.660Z,"    0"
2018-05-26T22:05:24.789Z,"    0"
2018-05-26T22:10:20.615Z,"    0"
2018-05-26T22:15:16.706Z,"    0"
2018-05-26T22:20:13.888Z,"    0"
2018-05-26T22:25:09.623Z,"    0"
2018-05-26T22:30:05.660Z,"    0"
2018-05-26T22:35:01.543Z,"    0"
2018-05-26T22:39:57.947Z,"    0"
2018-05-26T22:44:55.030Z,"    0"
2018-05-26T22:49:50.570Z,"    0"
2018-05-26T22:54:46.324Z,"    0"
2018-05-26T22:59:42.209Z,"    0"
2018-05-26T23:04:38.155Z,"    0"
2018-05-26T23:09:33.902Z,"    0"
2018-05-26T23:14:29.600Z,"    0"
2018-05-26T23:19:26.790Z,"    0"
2018-05-26T23:24:22.508Z,"    0"
2018-05-26T23:29:18.321Z,"    0"
2018-05-26T23:34:15.080Z,"    0"
2018-05-26T23:39:10.730Z,"    0"
2018-05-26T23:44:06.146Z,"    0"
2018-05-26T23:49:01.925Z,"    0"
2018-05-26T23:53:58.039Z,"    0"
2018-05-26T23:58:54.986Z,"    0"
